createdAt,value
2018-03-11T00:00:02.482Z,10.29
2018-03-11T00:00:06.599Z,10.29
2018-03-11T00:00:10.604Z,10.31
2018-03-11T00:00:14.499Z,10.26
2018-03-11T00:00:18.609Z,10.26
2018-03-11T00:00:22.726Z,10.31
2018-03-11T00:00:26.837Z,10.29
2018-03-11T00:00:30.840Z,10.29
2018-03-11T00:00:34.960Z,10.28
2018-03-11T00:00:38.857Z,10.26
2018-03-11T00:00:42.968Z,10.26
2018-03-11T00:00:46.764Z,10.28
2018-03-11T00:00:50.766Z,10.2
2018-03-11T00:00:54.553Z,10.29
2018-03-11T00:00:58.665Z,10.25
2018-03-11T00:01:02.462Z,10.29
2018-03-11T00:01:06.468Z,10.29
2018-03-11T00:01:10.471Z,10.28
2018-03-11T00:01:14.484Z,10.26
2018-03-11T00:01:18.649Z,10.32
2018-03-11T00:01:22.764Z,10.24
2018-03-11T00:01:26.987Z,10.24
2018-03-11T00:01:31.156Z,10.24
2018-03-11T00:01:35.374Z,10.29
2018-03-11T00:01:39.494Z,10.22
2018-03-11T00:01:43.488Z,10.25
2018-03-11T00:01:47.493Z,10.25
2018-03-11T00:01:51.179Z,10.26
2018-03-11T00:01:54.967Z,10.24
2018-03-11T00:01:58.651Z,10.2
2018-03-11T00:02:03.010Z,10.26
2018-03-11T00:02:06.800Z,10.18
2018-03-11T00:02:10.596Z,10.24
2018-03-11T00:02:14.327Z,10.22
2018-03-11T00:02:18.835Z,10.22
2018-03-11T00:02:23.307Z,10.2
2018-03-11T00:02:27.316Z,10.14
2018-03-11T00:02:31.429Z,10.25
2018-03-11T00:02:35.435Z,10.17
2018-03-11T00:02:39.448Z,10.2
2018-03-11T00:02:43.242Z,10.22
2018-03-11T00:02:47.040Z,10.2
2018-03-11T00:02:50.934Z,10.16
2018-03-11T00:02:54.942Z,10.17
2018-03-11T00:02:58.833Z,10.11
2018-03-11T00:03:02.965Z,10.18
2018-03-11T00:03:06.971Z,10.16
2018-03-11T00:03:10.762Z,10.18
2018-03-11T00:03:14.768Z,10.17
2018-03-11T00:03:18.889Z,10.2
2018-03-11T00:03:23.006Z,10.17
2018-03-11T00:03:26.796Z,10.13
2018-03-11T00:03:30.805Z,10.14
2018-03-11T00:03:34.918Z,10.18
2018-03-11T00:03:38.814Z,10.17
2018-03-11T00:03:42.920Z,10.13
2018-03-11T00:03:47.154Z,10.17
2018-03-11T00:03:51.279Z,10.13
2018-03-11T00:03:55.604Z,10.16
2018-03-11T00:03:59.822Z,10.14
2018-03-11T00:04:03.925Z,10.11
2018-03-11T00:04:08.080Z,10.2
2018-03-11T00:04:12.203Z,10.18
2018-03-11T00:04:16.212Z,10.14
2018-03-11T00:04:20.322Z,10.11
2018-03-11T00:04:24.650Z,10.16
2018-03-11T00:04:28.553Z,10.17
2018-03-11T00:04:32.671Z,10.11
2018-03-11T00:04:36.917Z,10.13
2018-03-11T00:04:41.029Z,10.11
2018-03-11T00:04:45.039Z,10.17
2018-03-11T00:04:49.160Z,10.18
2018-03-11T00:04:53.275Z,10.13
2018-03-11T00:04:57.394Z,10.11
2018-03-11T00:05:01.508Z,10.16
2018-03-11T00:05:05.450Z,10.14
2018-03-11T00:05:09.356Z,10.16
2018-03-11T00:05:13.577Z,10.07
2018-03-11T00:05:17.805Z,10.14
2018-03-11T00:05:22.030Z,10.18
2018-03-11T00:05:26.251Z,10.07
2018-03-11T00:05:30.479Z,10.16
2018-03-11T00:05:34.709Z,10.16
2018-03-11T00:05:38.828Z,10.16
2018-03-11T00:05:43.147Z,10.16
2018-03-11T00:05:47.263Z,10.13
2018-03-11T00:05:51.370Z,10.14
2018-03-11T00:05:55.596Z,10.16
2018-03-11T00:05:59.710Z,10.14
2018-03-11T00:06:04.042Z,10.13
2018-03-11T00:06:08.158Z,10.02
2018-03-11T00:06:12.269Z,10.13
2018-03-11T00:06:16.283Z,10.13
2018-03-11T00:06:20.397Z,10.11
2018-03-11T00:06:24.530Z,10.11
2018-03-11T00:06:28.644Z,10.14
2018-03-11T00:06:32.769Z,10.02
2018-03-11T00:06:36.886Z,10.06
2018-03-11T00:06:41.219Z,10.09
2018-03-11T00:06:45.442Z,10.07
2018-03-11T00:06:49.445Z,10.11
2018-03-11T00:06:53.559Z,10.06
2018-03-11T00:06:57.776Z,10.07
2018-03-11T00:07:01.780Z,10.07
2018-03-11T00:07:06.310Z,10.01
2018-03-11T00:07:10.423Z,10.1
2018-03-11T00:07:14.429Z,10.04
2018-03-11T00:07:18.436Z,10.04
2018-03-11T00:07:22.761Z,10.1
2018-03-11T00:07:26.887Z,10.06
2018-03-11T00:07:30.996Z,10.1
2018-03-11T00:07:35.109Z,10.1
2018-03-11T00:07:39.235Z,10.11
2018-03-11T00:07:43.449Z,10.06
2018-03-11T00:07:47.352Z,10.07
2018-03-11T00:07:51.575Z,10.06
2018-03-11T00:07:55.794Z,9.99
2018-03-11T00:07:59.845Z,10.02
2018-03-11T00:08:04.310Z,10.04
2018-03-11T00:08:08.437Z,10.01
2018-03-11T00:08:12.659Z,9.98
2018-03-11T00:08:16.782Z,10.02
2018-03-11T00:08:21.006Z,9.98
2018-03-11T00:08:25.243Z,10.02
2018-03-11T00:08:29.570Z,10.06
2018-03-11T00:08:33.898Z,9.98
2018-03-11T00:08:38.113Z,10.01
2018-03-11T00:08:42.335Z,10.04
2018-03-11T00:08:46.451Z,9.98
2018-03-11T00:08:50.786Z,10.06
2018-03-11T00:08:55.019Z,10.02
2018-03-11T00:08:59.352Z,10.01
2018-03-11T00:09:03.611Z,10.07
2018-03-11T00:09:07.612Z,9.98
2018-03-11T00:09:11.730Z,9.95
2018-03-11T00:09:15.965Z,10.01
2018-03-11T00:09:20.189Z,9.98
2018-03-11T00:09:24.519Z,10.02
2018-03-11T00:09:28.354Z,10.04
2018-03-11T00:09:32.573Z,9.95
2018-03-11T00:09:36.693Z,10.04
2018-03-11T00:09:40.809Z,10.02
2018-03-11T00:09:44.812Z,10.04
2018-03-11T00:09:49.168Z,10.02
2018-03-11T00:09:53.393Z,10.04
2018-03-11T00:09:57.398Z,10.02
2018-03-11T00:10:01.779Z,10.01
2018-03-11T00:10:05.895Z,9.99
2018-03-11T00:10:09.905Z,9.99
2018-03-11T00:10:14.127Z,10.01
2018-03-11T00:10:18.354Z,10.02
2018-03-11T00:10:22.469Z,9.96
2018-03-11T00:10:26.693Z,10.02
2018-03-11T00:10:30.818Z,9.96
2018-03-11T00:10:34.938Z,9.92
2018-03-11T00:10:38.838Z,9.93
2018-03-11T00:10:42.947Z,9.96
2018-03-11T00:10:47.063Z,9.95
2018-03-11T00:10:51.223Z,10.01
2018-03-11T00:10:55.354Z,9.92
2018-03-11T00:10:59.578Z,9.96
2018-03-11T00:11:03.474Z,10.04
2018-03-11T00:11:07.382Z,9.93
2018-03-11T00:11:11.601Z,9.95
2018-03-11T00:11:15.615Z,9.95
2018-03-11T00:11:19.947Z,9.91
2018-03-11T00:11:24.168Z,10.02
2018-03-11T00:11:28.391Z,9.95
2018-03-11T00:11:32.503Z,9.93
2018-03-11T00:11:36.513Z,9.98
2018-03-11T00:11:40.415Z,9.95
2018-03-11T00:11:44.203Z,9.95
2018-03-11T00:11:48.423Z,9.93
2018-03-11T00:11:52.541Z,9.93
2018-03-11T00:11:56.555Z,9.96
2018-03-11T00:12:00.672Z,9.99
2018-03-11T00:12:04.894Z,9.91
2018-03-11T00:12:09.260Z,9.95
2018-03-11T00:12:13.475Z,9.92
2018-03-11T00:12:17.374Z,9.95
2018-03-11T00:12:21.605Z,9.91
2018-03-11T00:12:25.615Z,9.92
2018-03-11T00:12:29.844Z,9.92
2018-03-11T00:12:33.959Z,9.92
2018-03-11T00:12:37.965Z,9.95
2018-03-11T00:12:41.860Z,9.93
2018-03-11T00:12:45.969Z,9.96
2018-03-11T00:12:49.985Z,9.96
2018-03-11T00:12:53.673Z,9.92
2018-03-11T00:12:57.792Z,9.95
2018-03-11T00:13:01.891Z,9.92
2018-03-11T00:13:06.114Z,9.96
2018-03-11T00:13:10.118Z,9.91
2018-03-11T00:13:14.122Z,9.92
2018-03-11T00:13:18.124Z,9.86
2018-03-11T00:13:22.350Z,9.91
2018-03-11T00:13:26.591Z,9.93
2018-03-11T00:13:30.815Z,9.89
2018-03-11T00:13:34.928Z,9.91
2018-03-11T00:13:39.043Z,9.89
2018-03-11T00:13:43.267Z,9.91
2018-03-11T00:13:47.063Z,9.86
2018-03-11T00:13:51.175Z,9.89
2018-03-11T00:13:55.397Z,9.91
2018-03-11T00:13:59.724Z,9.91
2018-03-11T00:14:03.785Z,9.93
2018-03-11T00:14:08.002Z,9.96
2018-03-11T00:14:12.005Z,9.88
2018-03-11T00:14:16.222Z,9.89
2018-03-11T00:14:20.441Z,9.93
2018-03-11T00:14:24.550Z,9.93
2018-03-11T00:14:28.555Z,9.81
2018-03-11T00:14:32.780Z,9.89
2018-03-11T00:14:37.001Z,9.92
2018-03-11T00:14:41.327Z,9.86
2018-03-11T00:14:45.666Z,9.8
2018-03-11T00:14:49.676Z,9.88
2018-03-11T00:14:53.680Z,9.89
2018-03-11T00:14:57.792Z,9.88
2018-03-11T00:15:02.004Z,9.91
2018-03-11T00:15:06.337Z,9.75
2018-03-11T00:15:10.449Z,9.8
2018-03-11T00:15:14.575Z,9.83
2018-03-11T00:15:18.581Z,9.86
2018-03-11T00:15:22.805Z,9.86
2018-03-11T00:15:26.813Z,9.91
2018-03-11T00:15:31.034Z,9.8
2018-03-11T00:15:35.361Z,9.83
2018-03-11T00:15:39.582Z,9.91
2018-03-11T00:15:43.704Z,9.88
2018-03-11T00:15:47.818Z,9.91
2018-03-11T00:15:51.724Z,9.77
2018-03-11T00:15:55.726Z,9.83
2018-03-11T00:16:00.052Z,9.83
2018-03-11T00:16:04.072Z,9.81
2018-03-11T00:16:08.358Z,9.85
2018-03-11T00:16:12.594Z,9.86
2018-03-11T00:16:16.921Z,9.89
2018-03-11T00:16:20.936Z,9.75
2018-03-11T00:16:25.162Z,9.85
2018-03-11T00:16:29.273Z,9.83
2018-03-11T00:16:33.685Z,9.83
2018-03-11T00:16:37.695Z,9.83
2018-03-11T00:16:41.919Z,9.83
2018-03-11T00:16:46.269Z,9.81
2018-03-11T00:16:50.595Z,9.8
2018-03-11T00:16:54.714Z,9.85
2018-03-11T00:16:58.824Z,9.85
2018-03-11T00:17:03.162Z,9.85
2018-03-11T00:17:07.282Z,9.78
2018-03-11T00:17:11.292Z,9.81
2018-03-11T00:17:15.510Z,9.8
2018-03-11T00:17:19.740Z,9.83
2018-03-11T00:17:23.969Z,9.88
2018-03-11T00:17:28.084Z,9.78
2018-03-11T00:17:32.412Z,9.83
2018-03-11T00:17:36.743Z,9.83
2018-03-11T00:17:40.851Z,9.81
2018-03-11T00:17:45.184Z,9.83
2018-03-11T00:17:49.196Z,9.85
2018-03-11T00:17:53.522Z,9.81
2018-03-11T00:17:57.850Z,9.81
2018-03-11T00:18:01.961Z,9.81
2018-03-11T00:18:06.188Z,9.75
2018-03-11T00:18:10.087Z,9.78
2018-03-11T00:18:14.212Z,9.81
2018-03-11T00:18:18.539Z,9.8
2018-03-11T00:18:22.755Z,9.78
2018-03-11T00:18:27.089Z,9.77
2018-03-11T00:18:31.096Z,9.8
2018-03-11T00:18:35.233Z,9.85
2018-03-11T00:18:39.564Z,9.78
2018-03-11T00:18:43.906Z,9.8
2018-03-11T00:18:48.132Z,9.8
2018-03-11T00:18:52.459Z,9.77
2018-03-11T00:18:56.788Z,9.83
2018-03-11T00:19:00.689Z,9.83
2018-03-11T00:19:04.794Z,9.81
2018-03-11T00:19:09.028Z,9.85
2018-03-11T00:19:13.140Z,9.78
2018-03-11T00:19:17.258Z,9.7
2018-03-11T00:19:21.478Z,9.83
2018-03-11T00:19:25.617Z,9.77
2018-03-11T00:19:29.837Z,9.75
2018-03-11T00:19:34.056Z,9.71
2018-03-11T00:19:38.384Z,9.77
2018-03-11T00:19:42.393Z,9.81
2018-03-11T00:19:46.398Z,9.77
2018-03-11T00:19:50.620Z,9.78
2018-03-11T00:19:54.733Z,9.75
2018-03-11T00:19:58.962Z,9.83
2018-03-11T00:20:03.347Z,9.68
2018-03-11T00:20:07.690Z,9.73
2018-03-11T00:20:11.805Z,9.74
2018-03-11T00:20:16.138Z,9.67
2018-03-11T00:20:20.141Z,9.78
2018-03-11T00:20:24.471Z,9.77
2018-03-11T00:20:28.477Z,9.75
2018-03-11T00:20:32.482Z,9.8
2018-03-11T00:20:36.704Z,9.73
2018-03-11T00:20:40.922Z,9.71
2018-03-11T00:20:45.254Z,9.7
2018-03-11T00:20:49.590Z,9.68
2018-03-11T00:20:53.596Z,9.73
2018-03-11T00:20:57.820Z,9.73
2018-03-11T00:21:01.936Z,9.73
2018-03-11T00:21:05.948Z,9.71
2018-03-11T00:21:09.957Z,9.74
2018-03-11T00:21:14.180Z,9.67
2018-03-11T00:21:18.082Z,9.68
2018-03-11T00:21:22.194Z,9.7
2018-03-11T00:21:26.413Z,9.77
2018-03-11T00:21:30.631Z,9.67
2018-03-11T00:21:34.750Z,9.65
2018-03-11T00:21:38.970Z,9.7
2018-03-11T00:21:42.871Z,9.73
2018-03-11T00:21:46.881Z,9.68
2018-03-11T00:21:51.106Z,9.75
2018-03-11T00:21:55.213Z,9.7
2018-03-11T00:21:59.340Z,9.68
2018-03-11T00:22:03.676Z,9.73
2018-03-11T00:22:07.791Z,9.71
2018-03-11T00:22:12.120Z,9.68
2018-03-11T00:22:16.241Z,9.74
2018-03-11T00:22:20.465Z,9.7
2018-03-11T00:22:24.689Z,9.67
2018-03-11T00:22:29.012Z,9.74
2018-03-11T00:22:33.127Z,9.68
2018-03-11T00:22:37.257Z,9.65
2018-03-11T00:22:41.371Z,9.7
2018-03-11T00:22:45.600Z,9.78
2018-03-11T00:22:49.819Z,9.71
2018-03-11T00:22:53.972Z,9.68
2018-03-11T00:22:58.196Z,9.71
2018-03-11T00:23:02.660Z,9.74
2018-03-11T00:23:06.772Z,9.63
2018-03-11T00:23:10.781Z,9.75
2018-03-11T00:23:14.902Z,9.68
2018-03-11T00:23:19.122Z,9.7
2018-03-11T00:23:23.019Z,9.71
2018-03-11T00:23:27.342Z,9.71
2018-03-11T00:23:31.558Z,9.7
2018-03-11T00:23:35.454Z,9.68
2018-03-11T00:23:39.465Z,9.73
2018-03-11T00:23:43.790Z,9.62
2018-03-11T00:23:47.903Z,9.67
2018-03-11T00:23:52.136Z,9.71
2018-03-11T00:23:56.463Z,9.74
2018-03-11T00:24:00.685Z,9.59
2018-03-11T00:24:04.700Z,9.75
2018-03-11T00:24:08.816Z,9.62
2018-03-11T00:24:12.829Z,9.68
2018-03-11T00:24:16.940Z,9.73
2018-03-11T00:24:21.056Z,9.67
2018-03-11T00:24:25.055Z,9.68
2018-03-11T00:24:29.286Z,9.65
2018-03-11T00:24:33.506Z,9.59
2018-03-11T00:24:37.732Z,9.62
2018-03-11T00:24:41.729Z,9.63
2018-03-11T00:24:45.946Z,9.67
2018-03-11T00:24:50.054Z,9.67
2018-03-11T00:24:54.271Z,9.67
2018-03-11T00:24:58.598Z,9.65
2018-03-11T00:25:02.977Z,9.67
2018-03-11T00:25:06.981Z,9.67
2018-03-11T00:25:10.883Z,9.63
2018-03-11T00:25:15.217Z,9.67
2018-03-11T00:25:19.445Z,9.68
2018-03-11T00:25:23.663Z,9.65
2018-03-11T00:25:27.668Z,9.58
2018-03-11T00:25:31.783Z,9.65
2018-03-11T00:25:36.112Z,9.65
2018-03-11T00:25:40.442Z,9.67
2018-03-11T00:25:44.561Z,9.65
2018-03-11T00:25:48.834Z,9.6
2018-03-11T00:25:52.843Z,9.63
2018-03-11T00:25:56.849Z,9.59
2018-03-11T00:26:01.080Z,9.63
2018-03-11T00:26:05.259Z,9.65
2018-03-11T00:26:09.262Z,9.63
2018-03-11T00:26:13.273Z,9.6
2018-03-11T00:26:17.395Z,9.63
2018-03-11T00:26:21.511Z,9.62
2018-03-11T00:26:25.741Z,9.63
2018-03-11T00:26:29.963Z,9.6
2018-03-11T00:26:34.294Z,9.6
2018-03-11T00:26:38.302Z,9.67
2018-03-11T00:26:42.420Z,9.65
2018-03-11T00:26:46.529Z,9.56
2018-03-11T00:26:50.645Z,9.6
2018-03-11T00:26:54.541Z,9.62
2018-03-11T00:26:58.659Z,9.55
2018-03-11T00:27:03.124Z,9.63
2018-03-11T00:27:07.151Z,9.65
2018-03-11T00:27:11.055Z,9.67
2018-03-11T00:27:15.175Z,9.63
2018-03-11T00:27:19.394Z,9.58
2018-03-11T00:27:23.404Z,9.58
2018-03-11T00:27:27.741Z,9.67
2018-03-11T00:27:31.971Z,9.59
2018-03-11T00:27:36.082Z,9.63
2018-03-11T00:27:40.306Z,9.58
2018-03-11T00:27:44.423Z,9.68
2018-03-11T00:27:48.654Z,9.62
2018-03-11T00:27:52.871Z,9.68
2018-03-11T00:27:56.988Z,9.62
2018-03-11T00:28:01.098Z,9.5
2018-03-11T00:28:05.267Z,9.6
2018-03-11T00:28:09.492Z,9.65
2018-03-11T00:28:13.712Z,9.63
2018-03-11T00:28:17.828Z,9.59
2018-03-11T00:28:21.836Z,9.53
2018-03-11T00:28:26.168Z,9.58
2018-03-11T00:28:30.490Z,9.62
2018-03-11T00:28:34.498Z,9.6
2018-03-11T00:28:38.499Z,9.55
2018-03-11T00:28:42.721Z,9.56
2018-03-11T00:28:46.939Z,9.53
2018-03-11T00:28:51.158Z,9.59
2018-03-11T00:28:55.164Z,9.58
2018-03-11T00:28:59.178Z,9.56
2018-03-11T00:29:03.181Z,9.58
2018-03-11T00:29:07.518Z,9.52
2018-03-11T00:29:11.795Z,9.53
2018-03-11T00:29:16.309Z,9.56
2018-03-11T00:29:20.471Z,9.5
2018-03-11T00:29:24.600Z,9.62
2018-03-11T00:29:28.705Z,9.6
2018-03-11T00:29:32.707Z,9.49
2018-03-11T00:29:36.813Z,9.6
2018-03-11T00:29:40.822Z,9.52
2018-03-11T00:29:44.719Z,9.49
2018-03-11T00:29:48.945Z,9.5
2018-03-11T00:29:53.061Z,9.56
2018-03-11T00:29:57.171Z,9.49
2018-03-11T00:30:01.173Z,9.49
2018-03-11T00:30:05.434Z,9.52
2018-03-11T00:30:09.448Z,9.48
2018-03-11T00:30:13.464Z,9.52
2018-03-11T00:30:17.469Z,9.49
2018-03-11T00:30:21.590Z,9.48
2018-03-11T00:30:25.596Z,9.49
2018-03-11T00:30:29.598Z,9.5
2018-03-11T00:30:33.920Z,9.5
2018-03-11T00:30:38.042Z,9.52
2018-03-11T00:30:42.374Z,9.48
2018-03-11T00:30:46.594Z,9.48
2018-03-11T00:30:50.812Z,9.48
2018-03-11T00:30:55.033Z,9.48
2018-03-11T00:30:59.261Z,9.52
2018-03-11T00:31:03.279Z,9.48
2018-03-11T00:31:07.393Z,9.48
2018-03-11T00:31:11.611Z,9.48
2018-03-11T00:31:15.834Z,9.48
2018-03-11T00:31:20.056Z,9.49
2018-03-11T00:31:24.174Z,9.5
2018-03-11T00:31:28.393Z,9.56
2018-03-11T00:31:32.400Z,9.5
2018-03-11T00:31:36.518Z,9.55
2018-03-11T00:31:40.735Z,9.44
2018-03-11T00:31:44.859Z,9.56
2018-03-11T00:31:49.188Z,9.5
2018-03-11T00:31:53.191Z,9.5
2018-03-11T00:31:57.309Z,9.5
2018-03-11T00:32:01.554Z,9.52
2018-03-11T00:32:05.666Z,9.48
2018-03-11T00:32:09.912Z,9.5
2018-03-11T00:32:14.026Z,9.52
2018-03-11T00:32:18.138Z,9.52
2018-03-11T00:32:22.355Z,9.44
2018-03-11T00:32:26.576Z,9.56
2018-03-11T00:32:30.792Z,9.52
2018-03-11T00:32:35.123Z,9.48
2018-03-11T00:32:39.126Z,9.52
2018-03-11T00:32:43.129Z,9.49
2018-03-11T00:32:47.140Z,9.44
2018-03-11T00:32:51.255Z,9.49
2018-03-11T00:32:55.308Z,9.52
2018-03-11T00:32:59.527Z,9.5
2018-03-11T00:33:03.836Z,9.5
2018-03-11T00:33:07.951Z,9.41
2018-03-11T00:33:12.060Z,9.44
2018-03-11T00:33:16.174Z,9.5
2018-03-11T00:33:20.184Z,9.5
2018-03-11T00:33:24.083Z,9.52
2018-03-11T00:33:28.307Z,9.45
2018-03-11T00:33:32.528Z,9.34
2018-03-11T00:33:36.537Z,9.35
2018-03-11T00:33:40.440Z,9.44
2018-03-11T00:33:44.234Z,9.4
2018-03-11T00:33:48.137Z,9.41
2018-03-11T00:33:52.355Z,9.45
2018-03-11T00:33:56.472Z,9.41
2018-03-11T00:34:00.688Z,9.41
2018-03-11T00:34:05.258Z,9.42
2018-03-11T00:34:09.483Z,9.45
2018-03-11T00:34:13.384Z,9.4
2018-03-11T00:34:17.608Z,9.35
2018-03-11T00:34:21.835Z,9.49
2018-03-11T00:34:25.837Z,9.45
2018-03-11T00:34:30.052Z,9.44
2018-03-11T00:34:34.059Z,9.35
2018-03-11T00:34:38.058Z,9.4
2018-03-11T00:34:42.347Z,9.44
2018-03-11T00:34:46.506Z,9.4
2018-03-11T00:34:50.632Z,9.42
2018-03-11T00:34:54.535Z,9.35
2018-03-11T00:34:58.536Z,9.37
2018-03-11T00:35:02.871Z,9.35
2018-03-11T00:35:06.983Z,9.4
2018-03-11T00:35:11.226Z,9.38
2018-03-11T00:35:15.231Z,9.35
2018-03-11T00:35:19.354Z,9.32
2018-03-11T00:35:23.572Z,9.45
2018-03-11T00:35:27.684Z,9.41
2018-03-11T00:35:31.578Z,9.38
2018-03-11T00:35:35.697Z,9.4
2018-03-11T00:35:39.803Z,9.38
2018-03-11T00:35:44.125Z,9.37
2018-03-11T00:35:48.341Z,9.44
2018-03-11T00:35:52.580Z,9.37
2018-03-11T00:35:56.692Z,9.37
2018-03-11T00:36:00.703Z,9.4
2018-03-11T00:36:04.906Z,9.37
2018-03-11T00:36:09.015Z,9.4
2018-03-11T00:36:13.344Z,9.41
2018-03-11T00:36:17.674Z,9.4
2018-03-11T00:36:21.682Z,9.31
2018-03-11T00:36:25.690Z,9.37
2018-03-11T00:36:30.032Z,9.31
2018-03-11T00:36:34.256Z,9.34
2018-03-11T00:36:38.377Z,9.38
2018-03-11T00:36:42.608Z,9.35
2018-03-11T00:36:46.833Z,9.41
2018-03-11T00:36:50.951Z,9.35
2018-03-11T00:36:54.949Z,9.31
2018-03-11T00:36:59.067Z,9.38
2018-03-11T00:37:03.392Z,9.3
2018-03-11T00:37:07.627Z,9.44
2018-03-11T00:37:11.523Z,9.4
2018-03-11T00:37:15.632Z,9.4
2018-03-11T00:37:19.957Z,9.37
2018-03-11T00:37:24.172Z,9.31
2018-03-11T00:37:28.391Z,9.42
2018-03-11T00:37:32.512Z,9.35
2018-03-11T00:37:36.840Z,9.32
2018-03-11T00:37:41.180Z,9.31
2018-03-11T00:37:45.179Z,9.4
2018-03-11T00:37:49.192Z,9.34
2018-03-11T00:37:53.306Z,9.31
2018-03-11T00:37:57.417Z,9.32
2018-03-11T00:38:01.837Z,9.37
2018-03-11T00:38:05.958Z,9.31
2018-03-11T00:38:10.075Z,9.37
2018-03-11T00:38:14.311Z,9.34
2018-03-11T00:38:18.428Z,9.32
2018-03-11T00:38:22.550Z,9.34
2018-03-11T00:38:26.776Z,9.34
2018-03-11T00:38:30.991Z,9.37
2018-03-11T00:38:35.216Z,9.34
2018-03-11T00:38:39.432Z,9.27
2018-03-11T00:38:43.655Z,9.31
2018-03-11T00:38:47.763Z,9.35
2018-03-11T00:38:51.980Z,9.38
2018-03-11T00:38:56.315Z,9.34
2018-03-11T00:39:00.423Z,9.35
2018-03-11T00:39:04.489Z,9.3
2018-03-11T00:39:08.605Z,9.37
2018-03-11T00:39:12.937Z,9.31
2018-03-11T00:39:17.067Z,9.42
2018-03-11T00:39:21.077Z,9.35
2018-03-11T00:39:25.307Z,9.35
2018-03-11T00:39:29.339Z,9.3
2018-03-11T00:39:33.563Z,9.35
2018-03-11T00:39:37.794Z,9.37
2018-03-11T00:39:41.796Z,9.37
2018-03-11T00:39:46.013Z,9.34
2018-03-11T00:39:50.232Z,9.38
2018-03-11T00:39:54.449Z,9.31
2018-03-11T00:39:58.779Z,9.32
2018-03-11T00:40:17.717Z,9.32
2018-03-11T00:40:21.936Z,9.37
2018-03-11T00:40:26.161Z,9.27
2018-03-11T00:40:30.422Z,9.27
2018-03-11T00:40:34.326Z,9.37
2018-03-11T00:40:38.543Z,9.31
2018-03-11T00:40:42.549Z,9.32
2018-03-11T00:40:46.769Z,9.37
2018-03-11T00:40:50.991Z,9.38
2018-03-11T00:40:55.212Z,9.34
2018-03-11T00:40:59.144Z,9.34
2018-03-11T00:41:03.116Z,9.27
2018-03-11T00:41:07.233Z,9.27
2018-03-11T00:41:11.239Z,9.34
2018-03-11T00:41:15.467Z,9.37
2018-03-11T00:41:19.578Z,9.34
2018-03-11T00:41:23.690Z,9.34
2018-03-11T00:41:27.707Z,9.3
2018-03-11T00:41:31.822Z,9.42
2018-03-11T00:41:35.960Z,9.34
2018-03-11T00:41:40.179Z,9.35
2018-03-11T00:41:44.406Z,9.26
2018-03-11T00:41:48.415Z,9.31
2018-03-11T00:41:52.429Z,9.35
2018-03-11T00:41:56.536Z,9.4
2018-03-11T00:42:00.756Z,9.34
2018-03-11T00:42:04.868Z,9.35
2018-03-11T00:42:08.876Z,9.34
2018-03-11T00:42:13.201Z,9.34
2018-03-11T00:42:17.315Z,9.4
2018-03-11T00:42:21.432Z,9.37
2018-03-11T00:42:25.556Z,9.44
2018-03-11T00:42:29.888Z,9.32
2018-03-11T00:42:34.016Z,9.27
2018-03-11T00:42:38.129Z,9.3
2018-03-11T00:42:42.346Z,9.35
2018-03-11T00:42:46.675Z,9.3
2018-03-11T00:42:50.579Z,9.32
2018-03-11T00:42:54.588Z,9.38
2018-03-11T00:42:58.815Z,9.38
2018-03-11T00:43:03.234Z,9.37
2018-03-11T00:43:07.447Z,9.34
2018-03-11T00:43:11.961Z,9.31
2018-03-11T00:43:16.348Z,9.27
2018-03-11T00:43:20.473Z,9.3
2018-03-11T00:43:24.593Z,9.38
2018-03-11T00:43:28.606Z,9.38
2018-03-11T00:43:32.721Z,9.31
2018-03-11T00:43:36.837Z,9.3
2018-03-11T00:43:41.062Z,9.31
2018-03-11T00:43:45.284Z,9.35
2018-03-11T00:43:49.399Z,9.35
2018-03-11T00:43:53.626Z,9.35
2018-03-11T00:43:57.965Z,9.34
2018-03-11T00:44:02.289Z,9.41
2018-03-11T00:44:06.622Z,9.4
2018-03-11T00:44:10.852Z,9.37
2018-03-11T00:44:14.965Z,9.35
2018-03-11T00:44:18.979Z,9.3
2018-03-11T00:44:23.102Z,9.35
2018-03-11T00:44:26.995Z,9.3
2018-03-11T00:44:31.216Z,9.34
2018-03-11T00:44:35.233Z,9.34
2018-03-11T00:44:39.554Z,9.3
2018-03-11T00:44:43.921Z,9.37
2018-03-11T00:44:48.034Z,9.31
2018-03-11T00:44:52.259Z,9.3
2018-03-11T00:44:56.483Z,9.34
2018-03-11T00:45:00.821Z,9.32
2018-03-11T00:45:05.297Z,9.31
2018-03-11T00:45:09.526Z,9.34
2018-03-11T00:45:13.745Z,9.31
2018-03-11T00:45:18.069Z,9.32
2018-03-11T00:45:22.400Z,9.34
2018-03-11T00:45:26.512Z,9.34
2018-03-11T00:45:30.625Z,9.32
2018-03-11T00:45:34.740Z,9.37
2018-03-11T00:45:38.969Z,9.45
2018-03-11T00:45:43.193Z,9.35
2018-03-11T00:45:47.305Z,9.38
2018-03-11T00:45:51.321Z,9.34
2018-03-11T00:45:55.550Z,9.35
2018-03-11T00:45:59.766Z,9.3
2018-03-11T00:46:03.988Z,9.4
2018-03-11T00:46:08.006Z,9.35
2018-03-11T00:46:12.230Z,9.44
2018-03-11T00:46:16.454Z,9.37
2018-03-11T00:46:20.678Z,9.4
2018-03-11T00:46:24.688Z,9.38
2018-03-11T00:46:28.814Z,9.35
2018-03-11T00:46:32.721Z,9.35
2018-03-11T00:46:36.733Z,9.38
2018-03-11T00:46:40.956Z,9.37
2018-03-11T00:46:44.958Z,9.42
2018-03-11T00:46:49.182Z,9.44
2018-03-11T00:46:53.402Z,9.44
2018-03-11T00:46:57.513Z,9.35
2018-03-11T00:47:01.895Z,9.38
2018-03-11T00:47:06.003Z,9.35
2018-03-11T00:47:10.328Z,9.4
2018-03-11T00:47:14.223Z,9.42
2018-03-11T00:47:18.455Z,9.42
2018-03-11T00:47:22.672Z,9.44
2018-03-11T00:47:26.838Z,9.31
2018-03-11T00:47:31.172Z,9.4
2018-03-11T00:47:35.393Z,9.45
2018-03-11T00:47:39.509Z,9.44
2018-03-11T00:47:43.616Z,9.32
2018-03-11T00:47:47.843Z,9.38
2018-03-11T00:47:51.957Z,9.48
2018-03-11T00:47:56.081Z,9.38
2018-03-11T00:48:00.198Z,9.5
2018-03-11T00:48:04.406Z,9.52
2018-03-11T00:48:08.524Z,9.41
2018-03-11T00:48:12.859Z,9.41
2018-03-11T00:48:16.983Z,9.45
2018-03-11T00:48:21.097Z,9.52
2018-03-11T00:48:25.433Z,9.48
2018-03-11T00:48:29.651Z,9.44
2018-03-11T00:48:33.880Z,9.5
2018-03-11T00:48:38.202Z,9.45
2018-03-11T00:48:42.432Z,9.45
2018-03-11T00:48:46.550Z,9.41
2018-03-11T00:48:50.576Z,9.48
2018-03-11T00:48:54.903Z,9.42
2018-03-11T00:48:58.906Z,9.5
2018-03-11T00:49:03.109Z,9.45
2018-03-11T00:49:07.222Z,9.49
2018-03-11T00:49:11.545Z,9.44
2018-03-11T00:49:15.761Z,9.48
2018-03-11T00:49:19.979Z,9.49
2018-03-11T00:49:23.981Z,9.5
2018-03-11T00:49:28.238Z,9.48
2018-03-11T00:49:32.463Z,9.45
2018-03-11T00:49:36.582Z,9.55
2018-03-11T00:49:40.799Z,9.56
2018-03-11T00:49:45.023Z,9.45
2018-03-11T00:49:49.133Z,9.5
2018-03-11T00:49:53.247Z,9.55
2018-03-11T00:49:57.360Z,9.44
2018-03-11T00:50:01.475Z,9.48
2018-03-11T00:50:05.479Z,9.44
2018-03-11T00:50:09.599Z,9.48
2018-03-11T00:50:13.938Z,9.53
2018-03-11T00:50:18.164Z,9.48
2018-03-11T00:50:22.168Z,9.45
2018-03-11T00:50:26.179Z,9.56
2018-03-11T00:50:30.516Z,9.48
2018-03-11T00:50:34.629Z,9.48
2018-03-11T00:50:38.742Z,9.45
2018-03-11T00:50:42.758Z,9.49
2018-03-11T00:50:47.092Z,9.48
2018-03-11T00:50:51.098Z,9.49
2018-03-11T00:50:55.215Z,9.49
2018-03-11T00:50:59.012Z,9.49
2018-03-11T00:51:03.223Z,9.52
2018-03-11T00:51:07.020Z,9.48
2018-03-11T00:51:11.238Z,9.49
2018-03-11T00:51:15.358Z,9.5
2018-03-11T00:51:19.257Z,9.52
2018-03-11T00:51:23.262Z,9.5
2018-03-11T00:51:27.261Z,9.63
2018-03-11T00:51:31.381Z,9.45
2018-03-11T00:51:35.493Z,9.45
2018-03-11T00:51:39.606Z,9.53
2018-03-11T00:51:43.613Z,9.52
2018-03-11T00:51:47.728Z,9.62
2018-03-11T00:51:51.623Z,9.53
2018-03-11T00:51:55.740Z,9.53
2018-03-11T00:51:59.642Z,9.58
2018-03-11T00:52:04.239Z,9.53
2018-03-11T00:52:08.253Z,9.63
2018-03-11T00:52:12.364Z,9.53
2018-03-11T00:52:16.364Z,9.53
2018-03-11T00:52:20.698Z,9.59
2018-03-11T00:52:25.025Z,9.63
2018-03-11T00:52:29.356Z,9.63
2018-03-11T00:52:33.264Z,9.65
2018-03-11T00:52:37.591Z,9.67
2018-03-11T00:52:41.701Z,9.59
2018-03-11T00:52:45.711Z,9.62
2018-03-11T00:52:50.037Z,9.6
2018-03-11T00:52:54.151Z,9.6
2018-03-11T00:52:58.160Z,9.6
2018-03-11T00:53:02.166Z,9.62
2018-03-11T00:53:06.469Z,9.56
2018-03-11T00:53:10.710Z,9.63
2018-03-11T00:53:14.821Z,9.56
2018-03-11T00:53:18.932Z,9.65
2018-03-11T00:53:23.156Z,9.65
2018-03-11T00:53:27.378Z,9.6
2018-03-11T00:53:31.600Z,9.63
2018-03-11T00:53:35.823Z,9.6
2018-03-11T00:53:40.048Z,9.59
2018-03-11T00:53:44.284Z,9.58
2018-03-11T00:53:48.182Z,9.62
2018-03-11T00:53:52.300Z,9.68
2018-03-11T00:53:56.305Z,9.6
2018-03-11T00:54:00.526Z,9.63
2018-03-11T00:54:04.850Z,9.65
2018-03-11T00:54:08.851Z,9.59
2018-03-11T00:54:13.184Z,9.67
2018-03-11T00:54:17.407Z,9.65
2018-03-11T00:54:21.428Z,9.67
2018-03-11T00:54:25.534Z,9.67
2018-03-11T00:54:29.748Z,9.68
2018-03-11T00:54:33.965Z,9.65
2018-03-11T00:54:38.189Z,9.68
2018-03-11T00:54:42.189Z,9.67
2018-03-11T00:54:46.531Z,9.65
2018-03-11T00:54:50.639Z,9.67
2018-03-11T00:54:54.768Z,9.7
2018-03-11T00:54:59.030Z,9.67
2018-03-11T00:55:03.252Z,9.6
2018-03-11T00:55:07.393Z,9.68
2018-03-11T00:55:11.509Z,9.68
2018-03-11T00:55:15.731Z,9.65
2018-03-11T00:55:19.947Z,9.67